Time;durP1;ratioP1;P1;durP2;ratioP2;P2;SDS_P1;SDS_P2;PMS_P1;PMS_P2;Temp;Humidity;BMP_temperature;BMP_pressure;BME280_temperature;BME280_humidity;BME280_pressure;Samples;Min_cycle;Max_cycle;Signal;HPM_P1;HPM_P2
2024/04/20 00:00:25;;;;;;;3.40;2.60;;;22.40;45.10;;;;;;11213542;26;20035;-50
2024/04/20 00:05:31;;;;;;;5.30;2.53;;;22.40;45.10;;;;;;11212324;26;20015;-47
2024/04/20 00:10:34;;;;;;;4.97;2.92;;;22.30;45.10;;;;;;11213124;26;20480;-48
2024/04/20 00:15:41;;;;;;;2.67;2.28;;;22.40;44.90;;;;;;11212929;26;20007;-47
2024/04/20 00:20:47;;;;;;;3.25;2.38;;;22.50;44.90;;;;;;11212931;26;20019;-48
2024/04/20 00:25:50;;;;;;;3.45;2.50;;;22.50;44.50;;;;;;11212144;26;20469;-47
2024/04/20 00:30:59;;;;;;;3.85;2.70;;;22.40;44.70;;;;;;11212496;26;20011;-48
2024/04/20 00:36:05;;;;;;;3.28;2.47;;;22.30;44.70;;;;;;11210480;26;20000;-47
2024/04/20 00:41:09;;;;;;;3.22;2.40;;;22.50;44.20;;;;;;11212333;26;20032;-46
2024/04/20 00:46:12;;;;;;;3.63;2.40;;;22.50;44.40;;;;;;11211234;26;19996;-49
2024/04/20 00:51:18;;;;;;;3.13;2.60;;;22.50;44.20;;;;;;11212592;26;20072;-47
2024/04/20 00:56:21;;;;;;;3.45;2.60;;;22.50;44.20;;;;;;11211149;26;19996;-46
2024/04/20 01:01:25;;;;;;;3.42;2.50;;;22.50;44.30;;;;;;11211987;26;20011;-49
2024/04/20 01:06:31;;;;;;;3.10;2.30;;;22.40;44.40;;;;;;11210454;26;20072;-48
2024/04/20 01:11:34;;;;;;;3.10;2.13;;;22.30;44.50;;;;;;11211361;26;20399;-48
2024/04/20 01:16:38;;;;;;;2.75;2.20;;;22.40;44.30;;;;;;11210758;26;20004;-47
2024/04/20 01:21:43;;;;;;;3.08;2.10;;;22.00;45.00;;;;;;11211029;26;20014;-49
2024/04/20 01:26:49;;;;;;;3.40;2.00;;;22.20;44.50;;;;;;11210270;26;20010;-46
2024/04/20 01:31:53;;;;;;;2.80;1.98;;;22.10;44.80;;;;;;11210679;26;20391;-44
2024/04/20 01:36:56;;;;;;;2.72;2.25;;;22.00;45.00;;;;;;11209759;26;20081;-44
2024/04/20 01:42:02;;;;;;;2.72;2.20;;;21.80;45.40;;;;;;11210557;26;20494;-45
2024/04/20 01:47:05;;;;;;;2.85;2.08;;;21.80;45.10;;;;;;11209800;26;20014;-44
2024/04/20 01:52:10;;;;;;;3.70;2.10;;;21.80;45.20;;;;;;11210230;26;20011;-44
2024/04/20 01:57:16;;;;;;;3.00;2.35;;;21.70;45.60;;;;;;11209687;26;20345;-44
2024/04/20 02:02:21;;;;;;;2.80;2.08;;;21.90;45.00;;;;;;11210294;26;20004;-44
2024/04/20 02:07:24;;;;;;;2.55;1.98;;;22.00;44.80;;;;;;11208650;26;19996;-44
2024/04/20 02:12:30;;;;;;;2.53;2.00;;;21.90;44.80;;;;;;11208645;26;20018;-46
2024/04/20 02:17:34;;;;;;;3.17;2.00;;;21.70;45.30;;;;;;11209099;26;20053;-44
2024/04/20 02:22:37;;;;;;;2.22;1.92;;;21.60;45.30;;;;;;11278237;26;20406;-44
2024/04/20 02:27:43;;;;;;;2.67;2.05;;;21.70;45.00;;;;;;11283171;26;19999;-44
2024/04/20 02:32:46;;;;;;;2.38;2.05;;;22.00;44.40;;;;;;11283262;26;19998;-44
2024/04/20 02:37:49;;;;;;;2.78;2.15;;;22.00;44.40;;;;;;11283315;26;20071;-43
2024/04/20 02:42:55;;;;;;;2.78;1.90;;;21.80;44.80;;;;;;11282781;26;20410;-44
2024/04/20 02:47:58;;;;;;;2.33;1.85;;;21.70;44.90;;;;;;11282800;26;20014;-43
2024/04/20 02:53:02;;;;;;;2.70;2.00;;;21.60;44.90;;;;;;11282502;26;20410;-44
2024/04/20 02:58:08;;;;;;;2.03;1.83;;;21.60;44.90;;;;;;11285215;26;20009;-44
2024/04/20 03:03:12;;;;;;;2.47;2.00;;;21.40;45.30;;;;;;11290161;26;20013;-45
2024/04/20 03:08:15;;;;;;;2.28;1.90;;;20.90;46.70;;;;;;11289184;26;20014;-47
2024/04/20 03:13:21;;;;;;;2.53;1.88;;;21.60;45.90;;;;;;11289551;26;20409;-46
2024/04/20 03:18:24;;;;;;;1.70;1.60;;;21.90;45.20;;;;;;11288941;26;19995;-44
2024/04/20 03:23:28;;;;;;;1.90;1.60;;;22.00;45.20;;;;;;11289109;26;20409;-44
2024/04/20 03:28:34;;;;;;;2.55;1.90;;;22.00;45.10;;;;;;11288663;26;20019;-44
2024/04/20 03:33:37;;;;;;;1.60;1.45;;;22.00;45.40;;;;;;11288696;26;20010;-46
2024/04/20 03:38:42;;;;;;;1.80;1.50;;;21.70;46.00;;;;;;11288851;26;20513;-44
2024/04/20 03:43:48;;;;;;;2.67;1.70;;;21.80;46.00;;;;;;11288380;26;20010;-44
2024/04/20 03:48:51;;;;;;;2.05;1.50;;;21.70;46.10;;;;;;11288167;26;20562;-44
2024/04/20 03:53:54;;;;;;;2.35;1.52;;;21.90;45.80;;;;;;11287903;26;20010;-46
2024/04/20 03:59:00;;;;;;;1.77;1.30;;;22.00;45.60;;;;;;11288384;26;19999;-44
2024/04/20 04:04:03;;;;;;;1.80;1.42;;;22.00;45.60;;;;;;11287596;26;20017;-45
2024/04/20 04:09:07;;;;;;;1.77;1.58;;;21.90;45.80;;;;;;11286112;26;20006;-44
2024/04/20 04:14:12;;;;;;;1.77;1.40;;;22.00;45.20;;;;;;11287604;26;20022;-43
2024/04/20 04:19:16;;;;;;;1.63;1.40;;;22.00;45.30;;;;;;11286995;26;20071;-44
2024/04/20 04:24:19;;;;;;;1.30;1.10;;;21.90;44.90;;;;;;11285099;26;20147;-43
2024/04/20 04:29:25;;;;;;;2.97;1.20;;;22.00;46.30;;;;;;11286254;26;20007;-44
2024/04/20 04:34:28;;;;;;;2.45;1.30;;;21.90;45.70;;;;;;11286509;26;20349;-44
2024/04/20 04:39:31;;;;;;;6.82;1.77;;;21.90;45.70;;;;;;11287167;26;19999;-44
2024/04/20 04:44:38;;;;;;;7.43;1.23;;;22.00;46.60;;;;;;11286452;26;20079;-45
2024/04/20 04:49:41;;;;;;;6.85;1.15;;;22.00;47.00;;;;;;11286022;26;20048;-46
2024/04/20 04:54:45;;;;;;;3.03;1.00;;;22.00;47.30;;;;;;11283296;26;19999;-43
2024/04/20 04:59:51;;;;;;;10.45;1.10;;;22.10;47.50;;;;;;11286135;26;19999;-46
2024/04/20 05:04:54;;;;;;;10.20;1.33;;;22.30;47.90;;;;;;11285895;26;20338;-43
2024/04/20 05:09:57;;;;;;;15.45;1.27;;;22.30;48.10;;;;;;11285714;26;20010;-43
2024/04/20 05:15:03;;;;;;;11.07;1.52;;;22.70;47.70;;;;;;11286029;26;19998;-45
2024/04/20 05:20:08;;;;;;;10.27;1.10;;;22.60;47.70;;;;;;11284958;26;19999;-44
2024/04/20 05:25:11;;;;;;;4.95;1.00;;;22.90;45.80;;;;;;11285440;26;19999;-43
2024/04/20 05:30:17;;;;;;;3.28;1.02;;;22.80;44.80;;;;;;11285186;26;20067;-44
2024/04/20 05:35:20;;;;;;;5.78;0.85;;;23.00;44.40;;;;;;11284996;26;20007;-43
2024/04/20 05:40:24;;;;;;;6.22;1.15;;;23.10;44.10;;;;;;11284714;26;20039;-43
2024/04/20 05:45:29;;;;;;;3.13;1.10;;;23.20;43.60;;;;;;11284749;26;20075;-43
2024/04/20 05:50:33;;;;;;;4.47;0.88;;;23.10;43.40;;;;;;11285197;26;20011;-44
2024/04/20 05:55:36;;;;;;;6.80;0.80;;;23.30;42.40;;;;;;11284258;26;20454;-44
2024/04/20 06:00:42;;;;;;;10.10;1.65;;;23.20;42.70;;;;;;11284575;26;19999;-44
2024/04/20 06:05:47;;;;;;;9.50;1.20;;;23.10;42.60;;;;;;11284159;26;20010;-44
2024/04/20 06:10:57;;;;;;;6.93;1.38;;;23.10;42.50;;;;;;11283922;26;20015;-45
2024/04/20 06:16:05;;;;;;;10.40;1.20;;;23.30;41.50;;;;;;11283811;26;20488;-46
2024/04/20 06:21:08;;;;;;;6.25;1.20;;;23.20;41.40;;;;;;11283393;26;19999;-47
2024/04/20 06:26:11;;;;;;;6.13;1.90;;;23.30;40.60;;;;;;11283688;26;20003;-44
2024/04/20 06:31:17;;;;;;;3.15;1.40;;;23.20;41.70;;;;;;11281987;26;20452;-44
2024/04/20 06:36:20;;;;;;;3.38;1.23;;;22.60;41.40;;;;;;11283310;26;20013;-44
2024/04/20 06:41:23;;;;;;;5.82;1.20;;;22.50;41.10;;;;;;11283002;26;19995;-44
2024/04/20 06:46:30;;;;;;;3.65;0.90;;;22.40;39.90;;;;;;11282720;26;20003;-44
2024/04/20 06:51:33;;;;;;;3.53;1.00;;;22.00;39.30;;;;;;11283229;26;19999;-44
2024/04/20 06:56:36;;;;;;;4.28;1.10;;;22.10;39.00;;;;;;11282318;26;20006;-43
2024/04/20 07:01:42;;;;;;;6.88;0.90;;;22.40;39.30;;;;;;11282541;26;20449;-43
2024/04/20 07:06:46;;;;;;;4.45;1.02;;;22.70;39.20;;;;;;11281981;26;20010;-44
2024/04/20 07:11:49;;;;;;;5.38;1.10;;;22.60;40.10;;;;;;11281792;26;20018;-43
2024/04/20 07:16:55;;;;;;;3.75;1.40;;;22.70;40.70;;;;;;11282226;26;20348;-43
2024/04/20 07:21:58;;;;;;;5.45;1.52;;;23.00;39.50;;;;;;11281594;26;20011;-43
2024/04/20 07:27:02;;;;;;;10.90;1.63;;;23.00;39.40;;;;;;11281759;26;20096;-43
2024/04/20 07:32:08;;;;;;;10.05;1.60;;;23.20;40.40;;;;;;11280842;26;20406;-44
2024/04/20 08:38:29;;;;;;;6.47;1.60;;;22.40;38.50;;;;;;2552825;22;20039;-81
2024/04/20 08:43:32;;;;;;;;;;;22.30;39.80;;;;;;10858487;27;20015;-80
2024/04/20 08:48:36;;;;;;;8.25;2.00;;;22.30;40.50;;;;;;10862483;27;19928;-80
2024/04/20 08:53:42;;;;;;;10.00;1.98;;;22.50;40.90;;;;;;10862482;27;20021;-79
2024/04/20 08:58:45;;;;;;;8.75;1.85;;;22.50;41.50;;;;;;10859668;27;20014;-80
2024/04/20 09:03:49;;;;;;;6.10;1.80;;;22.60;41.80;;;;;;10858546;27;20031;-81
2024/04/20 09:08:55;;;;;;;8.65;2.20;;;22.60;43.10;;;;;;10857405;27;20034;-82
2024/04/20 09:14:00;;;;;;;7.00;2.00;;;23.00;42.80;;;;;;10858331;27;20007;-80
2024/04/20 09:19:04;;;;;;;14.50;1.88;;;22.80;43.90;;;;;;10857981;27;20003;-81
2024/04/20 09:24:13;;;;;;;8.63;1.88;;;23.10;43.50;;;;;;10858277;27;20541;-79
2024/04/20 09:29:16;;;;;;;15.52;1.95;;;22.60;43.60;;;;;;10858306;27;20322;-79
2024/04/20 09:34:22;;;;;;;10.40;1.83;;;22.90;43.60;;;;;;10858686;27;20018;-79
2024/04/20 09:39:28;;;;;;;8.23;1.73;;;23.10;43.90;;;;;;10858354;27;20031;-81
2024/04/20 09:44:32;;;;;;;12.15;2.10;;;23.40;43.60;;;;;;10856718;27;20046;-81
2024/04/20 09:49:35;;;;;;;16.75;1.98;;;23.30;44.10;;;;;;10857579;27;20089;-84
2024/04/20 09:54:44;;;;;;;12.88;2.15;;;23.30;44.50;;;;;;10856267;27;20007;-81
2024/04/20 09:59:48;;;;;;;12.73;2.03;;;23.30;45.50;;;;;;10855678;27;20115;-81
2024/04/20 10:04:54;;;;;;;14.13;2.55;;;23.40;45.40;;;;;;10855716;27;20462;-82
2024/04/20 10:10:03;;;;;;;15.70;2.17;;;23.50;45.60;;;;;;10856389;27;20007;-82
2024/04/20 10:15:13;;;;;;;18.23;2.47;;;23.50;45.50;;;;;;10856514;27;20025;-82
2024/04/20 10:20:16;;;;;;;33.63;3.40;;;23.50;45.90;;;;;;10857162;27;20007;-81
2024/04/20 10:25:22;;;;;;;26.65;3.70;;;23.50;46.40;;;;;;10856229;27;20003;-80
2024/04/20 10:30:26;;;;;;;69.22;4.60;;;23.70;45.80;;;;;;10857084;27;20038;-82
2024/04/20 10:35:30;;;;;;;46.75;5.13;;;23.50;47.20;;;;;;10856499;27;20006;-83
2024/04/20 10:40:36;;;;;;;50.33;5.45;;;23.20;48.40;;;;;;10855739;27;20355;-82
2024/04/20 10:45:40;;;;;;;32.05;4.15;;;23.00;48.20;;;;;;10855136;27;20003;-82
2024/04/20 10:50:43;;;;;;;38.50;4.78;;;23.20;48.40;;;;;;10855150;27;20081;-82
2024/04/20 10:55:55;;;;;;;32.40;3.65;;;23.20;48.70;;;;;;10853737;27;20018;-82
2024/04/20 11:01:01;;;;;;;33.75;3.75;;;23.30;48.90;;;;;;10854055;27;20035;-81
2024/04/20 11:06:05;;;;;;;32.90;4.63;;;23.30;49.30;;;;;;10854108;27;20021;-82
2024/04/20 11:11:11;;;;;;;35.65;4.35;;;23.20;48.50;;;;;;10853806;27;20044;-81
2024/04/20 11:16:15;;;;;;;39.10;5.50;;;23.20;47.60;;;;;;10853431;27;20003;-81
2024/04/20 11:21:18;;;;;;;43.65;4.90;;;23.10;47.70;;;;;;10859431;27;20048;-82
2024/04/20 11:26:25;;;;;;;31.63;5.07;;;23.10;48.10;;;;;;10861963;27;20007;-84
2024/04/20 11:31:28;;;;;;;22.35;3.25;;;23.10;47.20;;;;;;10861744;27;20061;-80
2024/04/20 11:36:32;;;;;;;16.90;2.50;;;23.00;45.20;;;;;;10858635;27;20011;-83
2024/04/20 11:41:38;;;;;;;13.70;2.80;;;23.10;42.30;;;;;;10860600;27;20007;-83
2024/04/20 11:46:41;;;;;;;7.28;1.90;;;22.80;44.30;;;;;;10859803;27;19999;-80
2024/04/20 11:57:10;;;;;;;2.85;1.25;;;23.40;35.90;;;;;;10865337;27;20018;-80
2024/04/20 12:02:14;;;;;;;2.72;0.80;;;23.40;35.00;;;;;;10860213;27;20003;-80
2024/04/20 12:07:17;;;;;;;3.60;1.15;;;23.00;35.80;;;;;;10860242;27;20039;-80
2024/04/20 12:12:23;;;;;;;8.05;0.88;;;22.90;37.00;;;;;;10859360;27;20011;-80
2024/04/20 12:17:26;;;;;;;7.55;1.40;;;22.70;37.40;;;;;;10858793;27;20007;-79
2024/04/20 12:22:31;;;;;;;9.23;1.55;;;22.70;39.70;;;;;;10858956;27;20007;-79
2024/04/20 12:27:37;;;;;;;6.45;1.60;;;22.80;40.60;;;;;;10859252;27;20007;-80
2024/04/20 12:32:40;;;;;;;14.15;2.00;;;22.80;41.70;;;;;;10858599;27;20011;-79
2024/04/20 12:37:43;;;;;;;8.05;2.20;;;22.90;42.80;;;;;;10858828;27;20339;-79
2024/04/20 12:42:49;;;;;;;6.55;1.90;;;23.00;43.80;;;;;;10860024;27;20446;-79
2024/04/20 12:47:53;;;;;;;17.02;2.85;;;23.00;42.50;;;;;;10858618;27;20042;-80
2024/04/20 12:52:56;;;;;;;29.60;3.60;;;23.10;44.70;;;;;;10858289;27;20039;-82
2024/04/20 12:58:03;;;;;;;18.40;3.30;;;23.20;45.60;;;;;;10858131;27;20184;-82
2024/04/20 13:03:09;;;;;;;15.98;2.35;;;23.40;45.80;;;;;;10858234;27;20018;-82
2024/04/20 13:08:12;;;;;;;21.23;2.30;;;23.40;44.50;;;;;;10857903;27;20398;-81
2024/04/20 13:13:18;;;;;;;11.35;1.58;;;23.40;45.20;;;;;;10858439;27;20035;-81
2024/04/20 13:18:22;;;;;;;17.23;2.42;;;23.50;44.30;;;;;;10859198;27;20486;-82
2024/04/20 13:23:25;;;;;;;8.95;1.60;;;23.40;44.70;;;;;;10857039;27;20046;-83
2024/04/20 13:28:36;;;;;;;15.65;1.70;;;23.50;40.70;;;;;;10857785;27;20092;-83
2024/04/20 13:33:41;;;;;;;12.57;1.58;;;23.30;42.00;;;;;;10858005;27;19999;-83
2024/04/20 13:38:44;;;;;;;8.50;2.03;;;23.50;43.80;;;;;;10859102;27;20026;-81
2024/04/20 13:43:50;;;;;;;6.90;1.90;;;23.50;44.90;;;;;;10858413;27;20030;-82
2024/04/20 13:48:56;;;;;;;9.32;1.85;;;23.60;45.40;;;;;;10858534;27;20035;-81
2024/04/20 13:53:59;;;;;;;11.32;1.73;;;23.60;46.00;;;;;;10878243;27;20404;-81
2024/04/20 13:59:05;;;;;;;6.07;1.63;;;23.60;46.60;;;;;;10856021;27;20003;-81
2024/04/20 14:04:09;;;;;;;12.88;1.88;;;23.70;46.50;;;;;;10857160;27;20026;-81
2024/04/20 14:09:12;;;;;;;10.80;2.15;;;23.70;46.50;;;;;;10860214;27;20007;-80
2024/04/20 14:14:18;;;;;;;33.40;3.70;;;23.70;46.10;;;;;;10877466;27;20034;-80
2024/04/20 14:19:23;;;;;;;19.25;2.08;;;23.70;45.20;;;;;;10927773;27;20017;-80
2024/04/20 14:24:27;;;;;;;22.75;2.38;;;23.70;45.70;;;;;;10924960;27;20002;-79
2024/04/20 14:29:33;;;;;;;34.53;2.80;;;23.70;46.60;;;;;;10927533;27;20037;-80
2024/04/20 14:34:37;;;;;;;17.40;1.88;;;23.70;46.00;;;;;;10926107;27;19999;-80
2024/04/20 14:39:41;;;;;;;9.85;1.17;;;23.90;42.90;;;;;;10927054;27;20002;-80
2024/04/20 14:44:47;;;;;;;8.52;1.00;;;24.20;35.80;;;;;;10900447;27;20007;-80
2024/04/20 14:49:50;;;;;;;10.90;1.30;;;24.50;32.70;;;;;;10859554;27;20018;-81
2024/04/20 14:54:54;;;;;;;15.70;1.40;;;24.20;32.90;;;;;;10857960;27;20078;-80
2024/04/20 15:00:00;;;;;;;10.00;1.30;;;23.80;35.90;;;;;;10856095;27;20059;-80
2024/04/20 15:05:04;;;;;;;4.88;0.95;;;24.00;37.00;;;;;;10885463;27;20026;-79
2024/04/20 15:10:08;;;;;;;6.10;1.33;;;24.10;37.70;;;;;;10924331;27;20425;-82
2024/04/20 15:15:14;;;;;;;8.88;1.13;;;24.50;38.10;;;;;;10889123;27;20332;-82
2024/04/20 15:20:17;;;;;;;4.13;1.27;;;24.60;38.60;;;;;;10853250;27;20477;-81
2024/04/20 15:25:21;;;;;;;4.47;0.77;;;24.80;39.00;;;;;;10854042;27;19999;-82
2024/04/20 15:30:27;;;;;;;3.17;0.95;;;24.90;39.50;;;;;;10853385;27;20022;-82
2024/04/20 15:35:31;;;;;;;5.85;0.90;;;25.00;39.80;;;;;;10851678;27;20036;-82
2024/04/20 15:40:34;;;;;;;2.17;0.80;;;25.10;40.00;;;;;;10852018;27;20010;-82
2024/04/20 15:45:43;;;;;;;2.55;0.60;;;25.20;40.50;;;;;;10852295;27;20007;-82
2024/04/20 15:50:55;;;;;;;1.65;0.80;;;25.20;40.70;;;;;;10850609;27;20003;-82
2024/04/20 15:56:02;;;;;;;2.47;0.80;;;25.20;41.00;;;;;;10848929;27;20360;-82
2024/04/20 16:01:09;;;;;;;8.32;1.15;;;25.20;40.60;;;;;;10854833;27;20018;-82
2024/04/20 16:06:15;;;;;;;2.10;0.82;;;24.80;39.50;;;;;;10853582;27;20007;-82
2024/04/20 16:11:19;;;;;;;6.47;1.10;;;24.70;40.60;;;;;;10858068;27;20003;-82
2024/04/20 16:16:25;;;;;;;5.30;1.20;;;24.70;41.20;;;;;;10842828;27;21911;-82
2024/04/20 16:21:28;;;;;;;3.08;0.80;;;24.70;41.40;;;;;;10844116;27;20026;-83
2024/04/20 16:26:33;;;;;;;3.70;0.95;;;24.70;41.70;;;;;;10843701;27;20004;-82
2024/04/20 16:31:39;;;;;;;5.03;1.08;;;24.70;41.80;;;;;;10856975;27;20021;-82
2024/04/20 16:36:45;;;;;;;4.28;1.10;;;24.50;42.20;;;;;;10842719;27;20006;-83
2024/04/20 16:41:48;;;;;;;4.43;1.05;;;24.70;42.60;;;;;;10857481;27;20003;-82
2024/04/20 16:46:55;;;;;;;3.88;1.00;;;24.50;42.30;;;;;;10865653;27;20381;-82
2024/04/20 16:51:58;;;;;;;3.80;1.20;;;24.50;42.40;;;;;;10855425;27;20403;-82
2024/04/20 16:57:01;;;;;;;6.15;1.20;;;24.50;42.40;;;;;;10853927;27;20621;-82
2024/04/20 17:02:07;;;;;;;4.95;1.17;;;24.80;42.20;;;;;;10857643;27;20022;-81
2024/04/20 17:07:11;;;;;;;5.70;1.27;;;24.70;42.90;;;;;;10855530;27;20494;-82
2024/04/20 17:12:14;;;;;;;4.85;1.42;;;24.70;43.70;;;;;;10856206;27;20003;-85
2024/04/20 17:17:20;;;;;;;14.25;1.70;;;24.50;45.20;;;;;;10855197;27;20051;-83
2024/04/20 17:22:24;;;;;;;34.40;3.45;;;24.50;46.80;;;;;;10856031;27;20007;-83
2024/04/20 17:27:27;;;;;;;23.48;2.40;;;24.50;47.30;;;;;;10855658;27;19999;-84
2024/04/20 17:32:33;;;;;;;23.15;2.70;;;24.40;47.00;;;;;;10856774;27;20332;-84
2024/04/20 17:37:37;;;;;;;20.23;2.85;;;24.40;47.50;;;;;;10855498;27;20018;-84
2024/04/20 17:42:41;;;;;;;12.52;2.53;;;24.50;47.10;;;;;;10856054;27;20021;-83
2024/04/20 17:47:47;;;;;;;15.52;2.38;;;24.60;46.90;;;;;;10855251;27;20003;-85
2024/04/20 17:52:50;;;;;;;24.77;8.52;;;24.60;46.70;;;;;;10853334;27;20003;-84
2024/04/20 17:57:53;;;;;;;20.27;5.72;;;24.50;47.60;;;;;;10786534;27;20021;-83
2024/04/20 18:02:59;;;;;;;22.35;4.70;;;24.40;48.00;;;;;;10828358;27;20014;-84
2024/04/20 18:08:03;;;;;;;11.88;4.22;;;24.40;48.20;;;;;;10854629;27;20003;-82
2024/04/20 18:13:06;;;;;;;16.08;4.22;;;24.40;47.90;;;;;;10852463;27;20003;-82
2024/04/20 18:18:12;;;;;;;11.90;3.67;;;24.50;47.50;;;;;;10854147;27;20003;-83
2024/04/20 18:23:15;;;;;;;11.93;3.53;;;24.50;47.20;;;;;;10853684;27;20378;-82
2024/04/20 18:28:19;;;;;;;8.75;3.22;;;24.40;46.90;;;;;;10851865;27;20007;-83
2024/04/20 18:33:25;;;;;;;11.02;2.97;;;24.50;46.60;;;;;;10859560;27;20474;-83
2024/04/20 18:38:28;;;;;;;8.35;3.03;;;24.50;46.10;;;;;;10918828;27;20010;-83
2024/04/20 18:43:32;;;;;;;6.82;2.58;;;24.50;45.90;;;;;;10851020;27;20051;-83
2024/04/20 18:48:38;;;;;;;5.22;2.20;;;24.50;45.70;;;;;;10857731;27;20014;-83
2024/04/20 18:53:42;;;;;;;5.43;2.10;;;24.50;45.30;;;;;;10859593;27;20007;-82
2024/04/20 18:58:46;;;;;;;5.85;1.63;;;24.40;45.80;;;;;;10860646;27;20007;-82
2024/04/20 19:03:53;;;;;;;4.80;1.88;;;24.40;44.90;;;;;;10859054;27;20007;-82
2024/04/20 19:08:56;;;;;;;10.88;2.78;;;24.40;44.40;;;;;;10847678;27;20068;-82
2024/04/20 19:14:01;;;;;;;8.93;3.05;;;24.40;44.40;;;;;;10809198;27;20003;-80
2024/04/20 19:19:07;;;;;;;12.13;2.90;;;24.40;44.50;;;;;;10787517;27;20000;-81
2024/04/20 19:24:10;;;;;;;8.57;2.60;;;24.50;44.50;;;;;;10787785;27;20041;-81
2024/04/20 19:29:15;;;;;;;10.68;2.65;;;24.60;44.30;;;;;;10787028;27;20344;-81
2024/04/20 19:34:21;;;;;;;9.73;2.53;;;24.40;45.10;;;;;;10786929;27;20043;-81
2024/04/20 19:39:24;;;;;;;8.57;2.13;;;24.50;45.30;;;;;;10807977;27;20006;-81
2024/04/20 19:44:27;;;;;;;5.28;1.67;;;24.20;45.40;;;;;;10861845;27;20035;-81
2024/04/20 19:49:33;;;;;;;4.57;2.05;;;24.20;46.00;;;;;;10861976;27;20046;-81
2024/04/20 19:54:36;;;;;;;9.52;2.10;;;24.00;46.40;;;;;;10862552;27;20042;-81
2024/04/20 19:59:40;;;;;;;9.35;2.20;;;24.50;45.50;;;;;;10861422;27;20062;-81
2024/04/20 20:04:48;;;;;;;9.25;1.95;;;24.70;44.60;;;;;;10860265;27;20017;-82
2024/04/20 20:09:51;;;;;;;8.35;1.88;;;24.90;43.80;;;;;;10860153;27;20017;-81
2024/04/20 20:14:54;;;;;;;3.42;1.50;;;25.00;43.30;;;;;;10859896;27;20007;-81
2024/04/20 20:20:03;;;;;;;6.95;1.98;;;24.80;43.40;;;;;;10860213;27;20035;-81
2024/04/20 20:25:07;;;;;;;7.60;1.92;;;25.00;43.10;;;;;;10860720;27;20013;-81
2024/04/20 20:30:11;;;;;;;7.25;1.65;;;24.80;43.90;;;;;;10860294;27;20459;-82
2024/04/20 20:35:17;;;;;;;6.43;1.70;;;25.10;43.90;;;;;;10914703;22;20002;-82
2024/04/20 20:40:20;;;;;;;8.00;2.00;;;25.60;42.30;;;;;;10932278;27;20002;-83
2024/04/20 20:45:23;;;;;;;5.63;1.80;;;25.40;42.50;;;;;;10934003;27;20017;-83
2024/04/20 20:50:29;;;;;;;5.10;1.60;;;25.20;42.90;;;;;;10931426;27;20010;-83
2024/04/20 20:55:33;;;;;;;4.93;1.52;;;24.90;43.30;;;;;;10932178;27;20378;-83
2024/04/20 21:00:36;;;;;;;4.18;1.55;;;24.90;43.40;;;;;;10932043;27;20487;-83
2024/04/20 21:05:42;;;;;;;3.03;1.50;;;24.90;43.10;;;;;;10932567;27;20038;-83
2024/04/20 21:10:45;;;;;;;6.40;1.80;;;24.80;43.20;;;;;;10931327;27;20007;-83
2024/04/20 21:15:58;;;;;;;3.20;1.40;;;24.70;43.30;;;;;;10932436;27;20010;-83
2024/04/20 21:21:14;;;;;;;4.10;1.40;;;24.70;43.40;;;;;;10931993;27;20002;-83
2024/04/20 21:26:18;;;;;;;3.95;1.52;;;24.50;43.50;;;;;;10931151;27;20006;-83
2024/04/20 21:31:22;;;;;;;3.58;1.58;;;24.50;43.80;;;;;;10931226;27;20013;-82
2024/04/20 21:36:28;;;;;;;4.22;1.30;;;24.50;43.50;;;;;;10931079;27;20482;-83
2024/04/20 21:41:32;;;;;;;4.78;1.50;;;24.20;43.90;;;;;;10930925;27;20015;-83
2024/04/20 21:46:37;;;;;;;4.07;1.40;;;24.20;44.80;;;;;;10931545;27;20010;-83
2024/04/20 21:51:43;;;;;;;3.88;1.45;;;24.10;44.20;;;;;;10931082;27;20002;-83
2024/04/20 21:56:46;;;;;;;2.60;1.23;;;24.10;44.00;;;;;;10931114;27;20010;-83
2024/04/20 22:01:53;;;;;;;4.10;1.38;;;24.00;44.10;;;;;;10926225;27;20002;-84
2024/04/20 22:06:59;;;;;;;3.85;1.40;;;24.00;44.30;;;;;;10925574;27;20370;-84
2024/04/20 22:12:02;;;;;;;5.63;1.33;;;24.00;44.00;;;;;;10925767;27;20027;-84
2024/04/20 22:17:06;;;;;;;3.33;1.23;;;24.00;45.10;;;;;;10925469;27;20038;-84
2024/04/20 22:22:12;;;;;;;4.65;1.40;;;23.90;44.20;;;;;;10925231;27;20506;-84
2024/04/20 22:27:15;;;;;;;2.17;1.15;;;23.70;44.60;;;;;;10925196;27;20046;-84
2024/04/20 22:32:18;;;;;;;2.35;1.30;;;23.80;44.40;;;;;;10924814;27;20474;-84
2024/04/20 22:37:24;;;;;;;3.92;1.27;;;23.80;44.40;;;;;;10925121;27;20006;-84
2024/04/20 22:42:29;;;;;;;2.17;1.10;;;23.70;44.40;;;;;;10925261;27;20054;-84
2024/04/20 22:47:32;;;;;;;2.17;1.00;;;23.60;44.50;;;;;;10925122;27;20017;-84
2024/04/20 22:52:38;;;;;;;2.78;1.23;;;23.80;44.10;;;;;;10925034;27;20097;-84
2024/04/20 22:57:42;;;;;;;3.17;1.10;;;23.60;44.10;;;;;;10924489;27;20020;-83
2024/04/20 23:02:45;;;;;;;1.35;0.90;;;23.70;44.20;;;;;;10924311;27;20003;-84
2024/04/20 23:07:51;;;;;;;3.20;1.63;;;23.60;44.90;;;;;;10924469;27;20046;-83
2024/04/20 23:12:54;;;;;;;2.38;1.10;;;23.60;44.00;;;;;;10924627;27;20030;-83
2024/04/20 23:17:58;;;;;;;2.10;1.10;;;23.70;43.80;;;;;;10931554;27;20029;-84
2024/04/20 23:23:03;;;;;;;3.42;0.95;;;23.60;44.00;;;;;;10930306;27;20006;-84
2024/04/20 23:28:07;;;;;;;3.80;1.17;;;23.50;44.10;;;;;;10930063;27;20042;-84
2024/04/20 23:33:11;;;;;;;3.55;1.10;;;23.50;43.90;;;;;;10930028;27;20049;-84
2024/04/20 23:38:17;;;;;;;2.90;1.05;;;23.50;44.10;;;;;;10928505;27;20025;-84
2024/04/20 23:43:20;;;;;;;3.78;1.02;;;23.30;47.20;;;;;;10928400;27;20081;-84
2024/04/20 23:48:23;;;;;;;1.10;0.90;;;23.30;47.00;;;;;;10928199;27;20021;-83
2024/04/20 23:53:29;;;;;;;1.13;0.85;;;23.20;45.00;;;;;;10928339;27;20006;-84
2024/04/20 23:58:33;;;;;;;2.17;1.05;;;23.30;44.30;;;;;;10928111;27;20030;-84
